sensor_id;sensor_type;location;lat;lon;timestamp;pressure;altitude;pressure_sealevel;temperature;humidity
16100;BME280;8154;50.830;12.082;2024-02-14T00:00:11;99752.09;;;23.16;32.87
16100;BME280;8154;50.830;12.082;2024-02-14T00:02:44;99761.41;;;23.06;33.27
16100;BME280;8154;50.830;12.082;2024-02-14T00:05:11;99757.34;;;23.10;33.09
16100;BME280;8154;50.830;12.082;2024-02-14T00:07:38;99753.03;;;23.09;33.09
16100;BME280;8154;50.830;12.082;2024-02-14T00:10:06;99751.00;;;23.11;33.10
16100;BME280;8154;50.830;12.082;2024-02-14T00:12:33;99750.16;;;23.10;32.82
16100;BME280;8154;50.830;12.082;2024-02-14T00:15:02;99751.47;;;23.14;33.20
16100;BME280;8154;50.830;12.082;2024-02-14T00:17:30;99750.63;;;23.14;33.19
16100;BME280;8154;50.830;12.082;2024-02-14T00:19:57;99746.84;;;23.08;33.04
16100;BME280;8154;50.830;12.082;2024-02-14T00:22:24;99747.50;;;23.10;32.93
16100;BME280;8154;50.830;12.082;2024-02-14T00:24:51;99752.00;;;23.10;33.25
16100;BME280;8154;50.830;12.082;2024-02-14T00:27:19;99745.03;;;23.09;32.93
16100;BME280;8154;50.830;12.082;2024-02-14T00:29:46;99754.50;;;23.11;33.12
16100;BME280;8154;50.830;12.082;2024-02-14T00:32:16;99749.09;;;23.05;33.26
16100;BME280;8154;50.830;12.082;2024-02-14T00:34:42;99751.75;;;23.05;33.14
16100;BME280;8154;50.830;12.082;2024-02-14T00:37:10;99751.56;;;23.06;33.32
16100;BME280;8154;50.830;12.082;2024-02-14T00:39:38;99750.34;;;23.09;33.15
16100;BME280;8154;50.830;12.082;2024-02-14T00:42:05;99748.34;;;23.11;33.15
16100;BME280;8154;50.830;12.082;2024-02-14T00:44:31;99751.38;;;23.08;33.11
16100;BME280;8154;50.830;12.082;2024-02-14T00:46:58;99750.25;;;23.02;33.38
16100;BME280;8154;50.830;12.082;2024-02-14T00:49:26;99746.16;;;23.00;33.25
16100;BME280;8154;50.830;12.082;2024-02-14T00:51:54;99751.38;;;23.08;33.10
16100;BME280;8154;50.830;12.082;2024-02-14T00:54:22;99748.34;;;23.11;32.98
16100;BME280;8154;50.830;12.082;2024-02-14T00:56:48;99746.66;;;23.10;33.04
16100;BME280;8154;50.830;12.082;2024-02-14T00:59:16;99744.47;;;23.13;33.07
16100;BME280;8154;50.830;12.082;2024-02-14T01:01:42;99740.72;;;23.08;33.02
16100;BME280;8154;50.830;12.082;2024-02-14T01:04:08;99742.72;;;23.06;33.23
16100;BME280;8154;50.830;12.082;2024-02-14T01:06:35;99745.03;;;23.09;33.00
16100;BME280;8154;50.830;12.082;2024-02-14T01:09:02;99740.91;;;23.06;33.30
16100;BME280;8154;50.830;12.082;2024-02-14T01:11:30;99743.38;;;23.08;33.29
16100;BME280;8154;50.830;12.082;2024-02-14T01:13:59;99738.84;;;23.08;33.15
16100;BME280;8154;50.830;12.082;2024-02-14T01:16:26;99736.38;;;23.07;33.07
16100;BME280;8154;50.830;12.082;2024-02-14T01:18:54;99750.81;;;23.12;33.15
16100;BME280;8154;50.830;12.082;2024-02-14T01:21:21;99741.63;;;23.15;33.11
16100;BME280;8154;50.830;12.082;2024-02-14T01:23:48;99736.66;;;23.12;33.12
16100;BME280;8154;50.830;12.082;2024-02-14T01:26:15;99740.06;;;23.06;33.03
16100;BME280;8154;50.830;12.082;2024-02-14T01:28:42;99716.44;;;22.88;33.09
16100;BME280;8154;50.830;12.082;2024-02-14T01:31:11;99730.25;;;23.06;33.10
16100;BME280;8154;50.830;12.082;2024-02-14T01:33:42;99722.81;;;23.02;33.23
16100;BME280;8154;50.830;12.082;2024-02-14T01:36:10;99724.44;;;23.03;32.94
16100;BME280;8154;50.830;12.082;2024-02-14T01:38:37;99725.47;;;23.02;33.19
16100;BME280;8154;50.830;12.082;2024-02-14T01:41:05;99722.44;;;23.05;33.24
16100;BME280;8154;50.830;12.082;2024-02-14T01:43:31;99727.75;;;23.05;33.01
16100;BME280;8154;50.830;12.082;2024-02-14T01:46:06;99722.16;;;23.00;33.26
16100;BME280;8154;50.830;12.082;2024-02-14T01:48:35;99708.81;;;23.00;33.23
16100;BME280;8154;50.830;12.082;2024-02-14T01:51:03;99705.59;;;23.04;33.09
16100;BME280;8154;50.830;12.082;2024-02-14T01:53:31;99708.72;;;23.08;33.12
16100;BME280;8154;50.830;12.082;2024-02-14T01:55:59;99693.66;;;23.00;33.12
16100;BME280;8154;50.830;12.082;2024-02-14T01:58:29;99692.09;;;23.06;33.03
16100;BME280;8154;50.830;12.082;2024-02-14T02:00:58;99699.06;;;23.07;33.06
16100;BME280;8154;50.830;12.082;2024-02-14T02:03:25;99701.38;;;22.95;33.10
16100;BME280;8154;50.830;12.082;2024-02-14T02:05:52;99689.88;;;22.95;33.10
16100;BME280;8154;50.830;12.082;2024-02-14T02:08:21;99711.94;;;23.03;33.24
16100;BME280;8154;50.830;12.082;2024-02-14T02:10:48;99647.19;;;22.73;33.00
16100;BME280;8154;50.830;12.082;2024-02-14T02:13:15;99706.06;;;23.08;33.05
16100;BME280;8154;50.830;12.082;2024-02-14T02:15:42;99707.63;;;23.02;33.17
16100;BME280;8154;50.830;12.082;2024-02-14T02:18:12;99710.47;;;23.01;33.08
16100;BME280;8154;50.830;12.082;2024-02-14T02:20:41;99703.13;;;23.03;33.07
16100;BME280;8154;50.830;12.082;2024-02-14T02:23:12;99703.59;;;23.06;33.00
16100;BME280;8154;50.830;12.082;2024-02-14T02:25:43;99701.19;;;23.11;33.10
16100;BME280;8154;50.830;12.082;2024-02-14T02:28:11;99706.69;;;23.10;33.05
16100;BME280;8154;50.830;12.082;2024-02-14T02:30:39;99700.06;;;23.06;32.83
16100;BME280;8154;50.830;12.082;2024-02-14T02:33:06;99693.66;;;23.00;32.99
16100;BME280;8154;50.830;12.082;2024-02-14T02:35:34;99697.59;;;23.04;32.90
16100;BME280;8154;50.830;12.082;2024-02-14T02:38:01;99695.78;;;23.05;33.05
16100;BME280;8154;50.830;12.082;2024-02-14T02:40:29;99688.16;;;23.02;33.02
16100;BME280;8154;50.830;12.082;2024-02-14T02:42:57;99680.78;;;23.04;32.85
16100;BME280;8154;50.830;12.082;2024-02-14T02:45:25;99689.97;;;23.01;32.92
16100;BME280;8154;50.830;12.082;2024-02-14T02:47:52;99683.00;;;23.00;32.95
16100;BME280;8154;50.830;12.082;2024-02-14T02:50:19;99676.28;;;23.04;33.00
16100;BME280;8154;50.830;12.082;2024-02-14T02:52:46;99685.91;;;23.05;32.98
16100;BME280;8154;50.830;12.082;2024-02-14T02:55:13;99678.56;;;23.07;32.93
16100;BME280;8154;50.830;12.082;2024-02-14T02:57:43;99674.88;;;23.08;33.19
16100;BME280;8154;50.830;12.082;2024-02-14T03:00:10;99682.44;;;23.05;32.90
16100;BME280;8154;50.830;12.082;2024-02-14T03:02:40;99686.47;;;23.01;33.16
16100;BME280;8154;50.830;12.082;2024-02-14T03:05:11;99672.16;;;23.02;33.07
16100;BME280;8154;50.830;12.082;2024-02-14T03:07:45;99670.28;;;23.02;32.87
16100;BME280;8154;50.830;12.082;2024-02-14T03:10:14;99661.72;;;23.07;32.73
16100;BME280;8154;50.830;12.082;2024-02-14T03:12:48;99662.94;;;23.04;32.82
16100;BME280;8154;50.830;12.082;2024-02-14T03:15:16;99664.59;;;23.05;32.75
16100;BME280;8154;50.830;12.082;2024-02-14T03:17:45;99657.06;;;23.09;32.97
16100;BME280;8154;50.830;12.082;2024-02-14T03:20:13;99664.66;;;23.12;32.86
16100;BME280;8154;50.830;12.082;2024-02-14T03:22:41;99657.69;;;23.11;32.67
16100;BME280;8154;50.830;12.082;2024-02-14T03:25:16;99652.28;;;23.04;32.83
16100;BME280;8154;50.830;12.082;2024-02-14T03:27:43;99657.53;;;22.98;32.82
16100;BME280;8154;50.830;12.082;2024-02-14T03:30:13;99657.91;;;22.95;32.95
16100;BME280;8154;50.830;12.082;2024-02-14T03:32:44;99652.00;;;22.99;32.99
16100;BME280;8154;50.830;12.082;2024-02-14T03:35:10;99648.91;;;22.96;32.82
16100;BME280;8154;50.830;12.082;2024-02-14T03:37:41;99653.69;;;23.00;33.08
16100;BME280;8154;50.830;12.082;2024-02-14T03:40:09;99651.03;;;23.00;32.84
16100;BME280;8154;50.830;12.082;2024-02-14T03:42:37;99649.53;;;22.98;32.97
16100;BME280;8154;50.830;12.082;2024-02-14T03:45:08;99652.84;;;23.00;32.96
16100;BME280;8154;50.830;12.082;2024-02-14T03:47:35;99650.63;;;23.03;32.81
16100;BME280;8154;50.830;12.082;2024-02-14T03:50:07;99650.81;;;23.02;32.95
16100;BME280;8154;50.830;12.082;2024-02-14T03:52:33;99646.50;;;23.01;32.64
16100;BME280;8154;50.830;12.082;2024-02-14T03:55:01;99640.34;;;23.00;32.88
16100;BME280;8154;50.830;12.082;2024-02-14T03:57:28;99633.16;;;23.01;32.77
16100;BME280;8154;50.830;12.082;2024-02-14T03:59:55;99572.69;;;22.65;32.73
16100;BME280;8154;50.830;12.082;2024-02-14T04:02:23;99634.28;;;22.92;32.93
16100;BME280;8154;50.830;12.082;2024-02-14T04:04:50;99643.59;;;22.96;32.89
16100;BME280;8154;50.830;12.082;2024-02-14T04:07:25;99640.34;;;23.00;32.92
16100;BME280;8154;50.830;12.082;2024-02-14T04:09:54;99627.50;;;22.89;33.10
16100;BME280;8154;50.830;12.082;2024-02-14T04:12:21;99634.19;;;23.00;32.74
16100;BME280;8154;50.830;12.082;2024-02-14T04:14:48;99643.81;;;23.01;32.77
16100;BME280;8154;50.830;12.082;2024-02-14T04:17:15;99637.75;;;23.07;32.61
16100;BME280;8154;50.830;12.082;2024-02-14T04:19:43;99637.56;;;23.08;32.64
16100;BME280;8154;50.830;12.082;2024-02-14T04:22:10;99647.22;;;23.09;32.87
16100;BME280;8154;50.830;12.082;2024-02-14T04:24:37;99645.31;;;23.03;32.57
16100;BME280;8154;50.830;12.082;2024-02-14T04:27:08;99633.72;;;22.96;32.64
16100;BME280;8154;50.830;12.082;2024-02-14T04:29:34;99636.13;;;22.91;32.82
16100;BME280;8154;50.830;12.082;2024-02-14T04:32:01;99634.94;;;22.94;33.09
16100;BME280;8154;50.830;12.082;2024-02-14T04:34:30;99623.91;;;22.97;32.97
16100;BME280;8154;50.830;12.082;2024-02-14T04:36:56;99623.53;;;23.00;32.86
16100;BME280;8154;50.830;12.082;2024-02-14T04:39:23;99620.41;;;22.96;32.81
16100;BME280;8154;50.830;12.082;2024-02-14T04:41:51;99626.19;;;23.00;32.91
16100;BME280;8154;50.830;12.082;2024-02-14T04:44:18;99612.69;;;23.01;32.96
16100;BME280;8154;50.830;12.082;2024-02-14T04:46:44;99630.50;;;23.01;32.96
16100;BME280;8154;50.830;12.082;2024-02-14T04:49:11;99621.31;;;23.03;32.79
16100;BME280;8154;50.830;12.082;2024-02-14T04:51:38;99603.91;;;23.07;32.53
16100;BME280;8154;50.830;12.082;2024-02-14T04:54:06;99605.38;;;23.10;32.71
16100;BME280;8154;50.830;12.082;2024-02-14T04:56:34;99604.75;;;23.08;32.49
16100;BME280;8154;50.830;12.082;2024-02-14T04:59:02;99606.13;;;23.04;32.81
16100;BME280;8154;50.830;12.082;2024-02-14T05:01:29;99599.16;;;23.03;32.76
16100;BME280;8154;50.830;12.082;2024-02-14T05:03:57;99603.28;;;23.05;32.64
16100;BME280;8154;50.830;12.082;2024-02-14T05:06:24;99605.50;;;23.02;32.78
16100;BME280;8154;50.830;12.082;2024-02-14T05:08:50;99605.69;;;23.00;32.86
16100;BME280;8154;50.830;12.082;2024-02-14T05:11:20;99601.13;;;22.94;32.85
16100;BME280;8154;50.830;12.082;2024-02-14T05:13:46;99599.66;;;22.92;32.87
16100;BME280;8154;50.830;12.082;2024-02-14T05:16:12;99602.13;;;22.93;32.87
16100;BME280;8154;50.830;12.082;2024-02-14T05:18:39;99608.75;;;22.97;32.83
16100;BME280;8154;50.830;12.082;2024-02-14T05:21:06;99602.38;;;22.98;32.85
16100;BME280;8154;50.830;12.082;2024-02-14T05:23:34;99597.72;;;23.00;32.86
16100;BME280;8154;50.830;12.082;2024-02-14T05:26:04;99612.03;;;22.99;32.77
16100;BME280;8154;50.830;12.082;2024-02-14T05:28:36;99593.81;;;22.82;33.02
16100;BME280;8154;50.830;12.082;2024-02-14T05:31:05;99601.28;;;22.93;33.06
16100;BME280;8154;50.830;12.082;2024-02-14T05:33:34;99594.69;;;22.89;32.99
16100;BME280;8154;50.830;12.082;2024-02-14T05:36:00;99606.47;;;22.94;33.05
16100;BME280;8154;50.830;12.082;2024-02-14T05:38:27;99598.88;;;22.98;32.83
16100;BME280;8154;50.830;12.082;2024-02-14T05:40:53;99580.91;;;22.85;32.74
16100;BME280;8154;50.830;12.082;2024-02-14T05:43:22;99598.88;;;22.98;32.79
16100;BME280;8154;50.830;12.082;2024-02-14T05:45:49;99593.38;;;22.99;32.90
16100;BME280;8154;50.830;12.082;2024-02-14T05:48:15;99589.53;;;23.02;32.82
16100;BME280;8154;50.830;12.082;2024-02-14T05:50:43;99590.31;;;23.02;32.53
16100;BME280;8154;50.830;12.082;2024-02-14T05:53:10;99577.75;;;22.96;32.77
16100;BME280;8154;50.830;12.082;2024-02-14T05:55:38;99570.97;;;22.94;32.71
16100;BME280;8154;50.830;12.082;2024-02-14T05:58:07;99581.44;;;22.95;32.66
16100;BME280;8154;50.830;12.082;2024-02-14T06:00:34;99580.78;;;22.93;32.69
16100;BME280;8154;50.830;12.082;2024-02-14T06:03:02;99571.97;;;22.93;32.67
16100;BME280;8154;50.830;12.082;2024-02-14T06:05:29;99548.31;;;22.83;32.62
16100;BME280;8154;50.830;12.082;2024-02-14T06:08:02;99558.78;;;22.85;32.97
16100;BME280;8154;50.830;12.082;2024-02-14T06:10:28;99567.41;;;22.87;32.77
16100;BME280;8154;50.830;12.082;2024-02-14T06:12:56;99578.69;;;22.89;32.98
16100;BME280;8154;50.830;12.082;2024-02-14T06:15:22;99584.31;;;22.94;32.90
16100;BME280;8154;50.830;12.082;2024-02-14T06:17:49;99545.19;;;22.80;32.75
16100;BME280;8154;50.830;12.082;2024-02-14T06:20:16;99585.75;;;22.96;32.56
16100;BME280;8154;50.830;12.082;2024-02-14T06:22:43;99576.31;;;22.94;32.73
16100;BME280;8154;50.830;12.082;2024-02-14T06:25:10;99570.06;;;22.87;32.92
16100;BME280;8154;50.830;12.082;2024-02-14T06:27:37;99573.75;;;22.86;32.89
16100;BME280;8154;50.830;12.082;2024-02-14T06:30:05;99549.88;;;22.77;32.86
16100;BME280;8154;50.830;12.082;2024-02-14T06:32:33;99563.28;;;22.84;32.88
16100;BME280;8154;50.830;12.082;2024-02-14T06:34:59;99566.81;;;22.91;32.82
16100;BME280;8154;50.830;12.082;2024-02-14T06:37:27;99577.13;;;22.94;32.71
16100;BME280;8154;50.830;12.082;2024-02-14T06:39:54;99565.19;;;22.90;32.49
16100;BME280;8154;50.830;12.082;2024-02-14T06:42:21;99584.56;;;22.99;32.73
16100;BME280;8154;50.830;12.082;2024-02-14T06:44:48;99583.53;;;23.00;32.77
16100;BME280;8154;50.830;12.082;2024-02-14T06:47:16;99582.47;;;22.94;32.64
16100;BME280;8154;50.830;12.082;2024-02-14T06:49:44;99587.97;;;22.93;32.78
16100;BME280;8154;50.830;12.082;2024-02-14T06:52:11;99579.72;;;22.88;32.85
16100;BME280;8154;50.830;12.082;2024-02-14T06:54:38;99579.91;;;22.86;32.97
16100;BME280;8154;50.830;12.082;2024-02-14T06:57:04;99582.63;;;22.93;32.90
16100;BME280;8154;50.830;12.082;2024-02-14T06:59:32;99570.97;;;22.94;32.64
16100;BME280;8154;50.830;12.082;2024-02-14T07:01:59;99583.91;;;22.97;32.72
16100;BME280;8154;50.830;12.082;2024-02-14T07:04:28;99587.03;;;23.00;32.75
16100;BME280;8154;50.830;12.082;2024-02-14T07:06:55;99577.38;;;22.99;32.55
16100;BME280;8154;50.830;12.082;2024-02-14T07:09:22;99573.72;;;23.00;32.77
16100;BME280;8154;50.830;12.082;2024-02-14T07:11:50;99558.53;;;23.01;32.48
16100;BME280;8154;50.830;12.082;2024-02-14T07:14:17;99557.16;;;23.05;32.59
16100;BME280;8154;50.830;12.082;2024-02-14T07:16:45;99562.47;;;23.05;32.52
16100;BME280;8154;50.830;12.082;2024-02-14T07:19:12;99560.19;;;23.02;32.71
16100;BME280;8154;50.830;12.082;2024-02-14T07:21:40;99568.38;;;23.00;32.55
16100;BME280;8154;50.830;12.082;2024-02-14T07:24:08;99574.09;;;22.97;32.75
16100;BME280;8154;50.830;12.082;2024-02-14T07:26:41;99588.22;;;22.98;32.73
16100;BME280;8154;50.830;12.082;2024-02-14T07:29:12;99583.53;;;23.00;32.63
16100;BME280;8154;50.830;12.082;2024-02-14T07:31:39;99588.69;;;23.01;32.61
16100;BME280;8154;50.830;12.082;2024-02-14T07:34:06;99582.91;;;22.98;32.56
16100;BME280;8154;50.830;12.082;2024-02-14T07:36:35;99574.28;;;22.96;32.65
16100;BME280;8154;50.830;12.082;2024-02-14T07:39:02;99596.50;;;23.03;32.64
16100;BME280;8154;50.830;12.082;2024-02-14T07:41:31;99589.53;;;23.02;32.76
16100;BME280;8154;50.830;12.082;2024-02-14T07:43:59;99590.97;;;23.04;32.64
16100;BME280;8154;50.830;12.082;2024-02-14T07:46:27;99594.84;;;23.02;32.63
16100;BME280;8154;50.830;12.082;2024-02-14T07:48:55;99580.22;;;22.98;32.53
16100;BME280;8154;50.830;12.082;2024-02-14T07:51:24;99593.13;;;22.94;32.84
16100;BME280;8154;50.830;12.082;2024-02-14T07:53:51;99586.69;;;22.89;32.56
16100;BME280;8154;50.830;12.082;2024-02-14T07:56:17;99579.63;;;22.96;32.79
16100;BME280;8154;50.830;12.082;2024-02-14T07:58:45;99587.84;;;23.01;32.66
16100;BME280;8154;50.830;12.082;2024-02-14T08:01:16;99582.09;;;22.97;32.68
16100;BME280;8154;50.830;12.082;2024-02-14T08:03:43;99578.13;;;22.93;32.68
16100;BME280;8154;50.830;12.082;2024-02-14T08:06:13;99578.41;;;22.98;32.55
16100;BME280;8154;50.830;12.082;2024-02-14T08:08:43;99572.88;;;23.00;32.69
16100;BME280;8154;50.830;12.082;2024-02-14T08:11:15;99581.53;;;23.02;32.47
16100;BME280;8154;50.830;12.082;2024-02-14T08:13:42;99580.69;;;23.01;32.52
16100;BME280;8154;50.830;12.082;2024-02-14T08:16:11;99579.94;;;23.07;32.47
16100;BME280;8154;50.830;12.082;2024-02-14T08:18:39;99579.47;;;23.04;32.43
16100;BME280;8154;50.830;12.082;2024-02-14T08:21:06;99572.13;;;23.06;32.49
16100;BME280;8154;50.830;12.082;2024-02-14T08:23:35;99573.72;;;23.00;32.47
16100;BME280;8154;50.830;12.082;2024-02-14T08:26:06;99579.44;;;22.97;32.78
16100;BME280;8154;50.830;12.082;2024-02-14T08:28:38;99581.53;;;23.02;32.68
16100;BME280;8154;50.830;12.082;2024-02-14T08:31:11;99590.97;;;23.04;32.76
16100;BME280;8154;50.830;12.082;2024-02-14T08:33:37;99587.47;;;23.04;32.80
16100;BME280;8154;50.830;12.082;2024-02-14T08:36:05;99591.81;;;23.05;32.67
16100;BME280;8154;50.830;12.082;2024-02-14T08:38:34;99584.41;;;23.07;32.70
16100;BME280;8154;50.830;12.082;2024-02-14T08:41:06;99585.72;;;23.11;32.35
16100;BME280;8154;50.830;12.082;2024-02-14T08:43:34;99586.47;;;23.05;32.62
16100;BME280;8154;50.830;12.082;2024-02-14T08:46:01;99588.69;;;23.01;32.52
16100;BME280;8154;50.830;12.082;2024-02-14T08:48:29;99602.47;;;23.05;32.49
16100;BME280;8154;50.830;12.082;2024-02-14T08:51:01;99604.94;;;23.06;32.61
16100;BME280;8154;50.830;12.082;2024-02-14T08:53:29;99613.50;;;23.02;32.81
16100;BME280;8154;50.830;12.082;2024-02-14T08:55:58;99617.56;;;22.98;32.78
16100;BME280;8154;50.830;12.082;2024-02-14T08:58:26;99621.50;;;23.02;32.65
16100;BME280;8154;50.830;12.082;2024-02-14T09:00:54;99623.16;;;23.03;32.57
16100;BME280;8154;50.830;12.082;2024-02-14T09:03:21;99622.97;;;23.04;32.64
16100;BME280;8154;50.830;12.082;2024-02-14T09:05:50;99621.13;;;23.05;32.73
16100;BME280;8154;50.830;12.082;2024-02-14T09:08:17;99632.59;;;23.05;32.67
16100;BME280;8154;50.830;12.082;2024-02-14T09:10:47;99620.75;;;23.08;32.50
16100;BME280;8154;50.830;12.082;2024-02-14T09:13:15;99613.31;;;23.03;32.62
16100;BME280;8154;50.830;12.082;2024-02-14T09:15:43;99613.56;;;23.08;32.48
16100;BME280;8154;50.830;12.082;2024-02-14T09:18:09;99607.88;;;23.11;32.42
16100;BME280;8154;50.830;12.082;2024-02-14T09:20:35;99623.22;;;23.09;32.57
16100;BME280;8154;50.830;12.082;2024-02-14T09:23:06;99619.47;;;23.04;32.55
16100;BME280;8154;50.830;12.082;2024-02-14T09:25:33;99621.25;;;22.97;32.91
16100;BME280;8154;50.830;12.082;2024-02-14T09:28:00;99633.91;;;22.95;32.79
16100;BME280;8154;50.830;12.082;2024-02-14T09:30:27;99632.34;;;23.00;32.84
16100;BME280;8154;50.830;12.082;2024-02-14T09:32:54;99635.44;;;23.04;32.74
16100;BME280;8154;50.830;12.082;2024-02-14T09:35:22;99629.50;;;23.02;32.52
16100;BME280;8154;50.830;12.082;2024-02-14T09:37:50;99630.78;;;23.06;32.82
16100;BME280;8154;50.830;12.082;2024-02-14T09:40:17;99644.94;;;23.06;32.54
16100;BME280;8154;50.830;12.082;2024-02-14T09:42:54;99636.28;;;23.04;32.55
16100;BME280;8154;50.830;12.082;2024-02-14T09:45:28;99636.09;;;23.06;32.56
16100;BME280;8154;50.830;12.082;2024-02-14T09:47:57;99632.97;;;23.02;32.66
16100;BME280;8154;50.830;12.082;2024-02-14T09:50:26;99633.81;;;23.03;32.68
16100;BME280;8154;50.830;12.082;2024-02-14T09:52:59;99637.75;;;23.07;32.58
16100;BME280;8154;50.830;12.082;2024-02-14T09:55:26;99640.22;;;23.08;32.77
16100;BME280;8154;50.830;12.082;2024-02-14T09:57:56;99637.50;;;23.02;32.64
16100;BME280;8154;50.830;12.082;2024-02-14T10:00:23;99638.31;;;23.02;32.86
16100;BME280;8154;50.830;12.082;2024-02-14T10:02:51;99635.44;;;23.04;32.72
16100;BME280;8154;50.830;12.082;2024-02-14T10:05:18;99628.47;;;23.03;32.87
16100;BME280;8154;50.830;12.082;2024-02-14T10:07:44;99630.13;;;23.04;32.88
16100;BME280;8154;50.830;12.082;2024-02-14T10:10:12;99623.78;;;23.05;32.66
16100;BME280;8154;50.830;12.082;2024-02-14T10:12:39;99633.44;;;23.06;32.80
16100;BME280;8154;50.830;12.082;2024-02-14T10:15:09;99633.63;;;23.04;32.68
16100;BME280;8154;50.830;12.082;2024-02-14T10:17:41;99645.31;;;23.03;32.65
16100;BME280;8154;50.830;12.082;2024-02-14T10:20:09;99631.78;;;23.05;32.55
16100;BME280;8154;50.830;12.082;2024-02-14T10:22:38;99626.47;;;23.05;32.72
16100;BME280;8154;50.830;12.082;2024-02-14T10:25:06;99632.88;;;23.10;32.73
16100;BME280;8154;50.830;12.082;2024-02-14T10:27:39;99615.78;;;23.05;32.63
16100;BME280;8154;50.830;12.082;2024-02-14T10:30:08;99643.72;;;23.09;32.69
16100;BME280;8154;50.830;12.082;2024-02-14T10:32:41;99635.44;;;23.04;32.79
16100;BME280;8154;50.830;12.082;2024-02-14T10:35:14;99643.25;;;23.05;32.72
16100;BME280;8154;50.830;12.082;2024-02-14T10:37:41;99639.59;;;23.06;32.76
16100;BME280;8154;50.830;12.082;2024-02-14T10:40:08;99636.56;;;23.09;32.60
16100;BME280;8154;50.830;12.082;2024-02-14T10:42:37;99632.47;;;23.13;32.72
16100;BME280;8154;50.830;12.082;2024-02-14T10:45:04;99635.16;;;23.13;32.71
16100;BME280;8154;50.830;12.082;2024-02-14T10:47:36;99629.00;;;23.13;32.63
16100;BME280;8154;50.830;12.082;2024-02-14T10:50:06;99641.13;;;23.15;32.49
16100;BME280;8154;50.830;12.082;2024-02-14T10:52:35;99639.31;;;23.16;32.51
16100;BME280;8154;50.830;12.082;2024-02-14T10:55:04;99645.81;;;23.13;32.59
16100;BME280;8154;50.830;12.082;2024-02-14T10:57:33;99645.63;;;23.15;32.67
16100;BME280;8154;50.830;12.082;2024-02-14T11:00:07;99650.56;;;23.18;32.44
16100;BME280;8154;50.830;12.082;2024-02-14T11:02:42;99659.41;;;23.18;32.60
16100;BME280;8154;50.830;12.082;2024-02-14T11:05:15;99649.44;;;23.06;32.78
16100;BME280;8154;50.830;12.082;2024-02-14T11:07:45;99639.59;;;23.06;32.65
16100;BME280;8154;50.830;12.082;2024-02-14T11:10:16;99633.06;;;23.09;32.79
16100;BME280;8154;50.830;12.082;2024-02-14T11:12:43;99640.88;;;23.10;32.57
16100;BME280;8154;50.830;12.082;2024-02-14T11:15:14;99645.81;;;23.13;32.73
16100;BME280;8154;50.830;12.082;2024-02-14T11:17:42;99647.50;;;23.14;32.37
16100;BME280;8154;50.830;12.082;2024-02-14T11:20:18;99619.47;;;23.04;32.66
16100;BME280;8154;50.830;12.082;2024-02-14T11:22:57;99638.66;;;23.14;32.77
16100;BME280;8154;50.830;12.082;2024-02-14T11:25:29;99640.03;;;23.10;32.79
16100;BME280;8154;50.830;12.082;2024-02-14T11:27:59;99636.81;;;23.14;32.78
16100;BME280;8154;50.830;12.082;2024-02-14T11:30:31;99629.63;;;23.15;32.62
16100;BME280;8154;50.830;12.082;2024-02-14T11:33:19;99632.56;;;23.20;32.62
16100;BME280;8154;50.830;12.082;2024-02-14T11:35:52;99643.41;;;23.18;32.47
16100;BME280;8154;50.830;12.082;2024-02-14T11:38:24;99647.50;;;23.14;32.44
16100;BME280;8154;50.830;12.082;2024-02-14T11:40:55;99646.84;;;23.12;32.77
16100;BME280;8154;50.830;12.082;2024-02-14T11:43:25;99648.88;;;23.10;32.89
16100;BME280;8154;50.830;12.082;2024-02-14T11:45:53;99651.53;;;23.10;32.58
16100;BME280;8154;50.830;12.082;2024-02-14T11:48:22;99655.03;;;23.11;32.62
16100;BME280;8154;50.830;12.082;2024-02-14T11:50:53;99654.84;;;23.12;32.74
16100;BME280;8154;50.830;12.082;2024-02-14T11:53:22;99643.91;;;23.07;32.75
16100;BME280;8154;50.830;12.082;2024-02-14T11:55:51;99649.50;;;23.12;32.83
16100;BME280;8154;50.830;12.082;2024-02-14T11:58:19;99647.31;;;23.16;32.76
16100;BME280;8154;50.830;12.082;2024-02-14T12:00:47;99638.47;;;23.15;32.80
16100;BME280;8154;50.830;12.082;2024-02-14T12:03:18;99637.81;;;23.13;32.74
16100;BME280;8154;50.830;12.082;2024-02-14T12:05:46;99636.44;;;23.17;32.64
16100;BME280;8154;50.830;12.082;2024-02-14T12:08:13;99623.03;;;23.11;32.75
16100;BME280;8154;50.830;12.082;2024-02-14T12:10:46;99635.59;;;23.17;32.44
16100;BME280;8154;50.830;12.082;2024-02-14T12:13:17;99628.38;;;23.11;32.75
16100;BME280;8154;50.830;12.082;2024-02-14T12:15:51;99632.78;;;23.04;33.01
16100;BME280;8154;50.830;12.082;2024-02-14T12:18:21;99629.13;;;23.05;32.93
16100;BME280;8154;50.830;12.082;2024-02-14T12:20:48;99621.56;;;23.08;32.76
16100;BME280;8154;50.830;12.082;2024-02-14T12:23:19;99626.88;;;23.08;32.60
16100;BME280;8154;50.830;12.082;2024-02-14T12:25:50;99636.44;;;23.17;32.53
16100;BME280;8154;50.830;12.082;2024-02-14T12:28:17;99632.09;;;23.16;32.52
16100;BME280;8154;50.830;12.082;2024-02-14T12:30:47;99625.88;;;23.09;32.79
16100;BME280;8154;50.830;12.082;2024-02-14T12:33:16;99634.78;;;23.16;32.57
16100;BME280;8154;50.830;12.082;2024-02-14T12:35:48;99644.44;;;23.17;32.76
16100;BME280;8154;50.830;12.082;2024-02-14T12:38:18;99639.31;;;23.16;32.67
16100;BME280;8154;50.830;12.082;2024-02-14T12:40:46;99635.16;;;23.13;32.84
16100;BME280;8154;50.830;12.082;2024-02-14T12:43:15;99628.94;;;23.06;32.78
16100;BME280;8154;50.830;12.082;2024-02-14T12:45:46;99646.84;;;23.12;32.80
16100;BME280;8154;50.830;12.082;2024-02-14T12:48:21;99647.31;;;23.16;32.83
16100;BME280;8154;50.830;12.082;2024-02-14T12:50:48;99649.69;;;23.11;32.73
16100;BME280;8154;50.830;12.082;2024-02-14T12:53:19;99651.53;;;23.10;32.73
16100;BME280;8154;50.830;12.082;2024-02-14T12:55:50;99646.38;;;23.09;32.74
16100;BME280;8154;50.830;12.082;2024-02-14T12:58:24;99646.56;;;23.07;32.89
16100;BME280;8154;50.830;12.082;2024-02-14T13:00:52;99644.38;;;23.11;32.79
16100;BME280;8154;50.830;12.082;2024-02-14T13:03:20;99646.56;;;23.07;32.96
16100;BME280;8154;50.830;12.082;2024-02-14T13:05:49;99656.47;;;23.13;32.59